createdAt,value
2019-04-30T00:00:18.321Z,20.51
2019-04-30T00:01:18.879Z,20.50
2019-04-30T00:02:17.211Z,20.53
2019-04-30T00:03:19.577Z,20.59
2019-04-30T00:04:17.192Z,20.54
2019-04-30T00:05:18.873Z,20.53
2019-04-30T00:06:17.165Z,20.56
2019-04-30T00:07:19.027Z,20.54
2019-04-30T00:08:17.164Z,20.54
2019-04-30T00:09:19.054Z,20.54
2019-04-30T00:10:17.124Z,20.56
2019-04-30T00:11:19.523Z,20.54
2019-04-30T00:12:17.104Z,20.50
2019-04-30T00:13:20.672Z,20.56
2019-04-30T00:14:17.078Z,20.53
2019-04-30T00:15:19.516Z,20.56
2019-04-30T00:16:17.053Z,20.54
2019-04-30T00:17:19.599Z,20.56
2019-04-30T00:18:17.055Z,20.58
2019-04-30T00:19:19.590Z,20.54
2019-04-30T00:20:17.753Z,20.53
2019-04-30T00:21:18.719Z,20.53
2019-04-30T00:22:17.007Z,20.50
2019-04-30T00:23:18.062Z,20.51
2019-04-30T00:24:17.983Z,20.54
2019-04-30T00:25:19.621Z,20.56
2019-04-30T00:26:17.938Z,20.51
2019-04-30T00:27:21.100Z,20.51
2019-04-30T00:28:17.915Z,20.59
2019-04-30T00:29:26.546Z,20.47
2019-04-30T00:30:17.896Z,20.54
2019-04-30T00:31:23.460Z,20.51
2019-04-30T00:32:17.871Z,20.58
2019-04-30T00:33:22.056Z,20.50
2019-04-30T00:34:17.873Z,20.51
2019-04-30T00:35:19.490Z,20.53
2019-04-30T00:36:17.401Z,20.43
2019-04-30T00:37:18.792Z,20.50
2019-04-30T00:38:16.808Z,20.54
2019-04-30T00:39:16.880Z,20.47
2019-04-30T00:40:16.782Z,20.50
2019-04-30T00:41:16.770Z,20.46
2019-04-30T00:42:23.918Z,20.47
2019-04-30T00:43:17.747Z,20.51
2019-04-30T00:44:19.898Z,20.41
2019-04-30T00:45:17.724Z,20.49
2019-04-30T00:46:24.494Z,20.54
2019-04-30T00:47:17.702Z,20.50
2019-04-30T00:48:26.594Z,20.42
2019-04-30T00:49:22.906Z,20.46
2019-04-30T00:50:17.669Z,20.43
2019-04-30T00:51:20.975Z,20.49
2019-04-30T00:52:16.650Z,20.47
2019-04-30T00:53:16.736Z,20.35
2019-04-30T00:54:17.632Z,20.39
2019-04-30T00:55:16.613Z,20.43
2019-04-30T00:56:19.868Z,20.43
2019-04-30T00:57:17.592Z,20.42
2019-04-30T00:58:24.471Z,20.43
2019-04-30T00:59:17.588Z,20.43
2019-04-30T01:00:19.668Z,20.43
2019-04-30T01:01:17.554Z,20.38
2019-04-30T01:02:19.915Z,20.38
2019-04-30T01:03:17.521Z,20.42
2019-04-30T01:04:19.424Z,20.46
2019-04-30T01:05:17.498Z,20.35
2019-04-30T01:06:17.188Z,20.41
2019-04-30T01:07:17.475Z,20.43
2019-04-30T01:08:16.466Z,20.34
2019-04-30T01:09:16.476Z,20.41
2019-04-30T01:10:19.562Z,20.43
2019-04-30T01:11:17.435Z,20.41
2019-04-30T01:12:17.361Z,20.42
2019-04-30T01:13:19.071Z,20.43
2019-04-30T01:14:16.423Z,20.43
2019-04-30T01:15:16.388Z,20.41
2019-04-30T01:16:16.380Z,20.41
2019-04-30T01:17:16.365Z,20.39
2019-04-30T01:18:16.353Z,20.39
2019-04-30T01:19:28.923Z,20.43
2019-04-30T01:20:19.240Z,20.46
2019-04-30T01:21:16.325Z,20.38
2019-04-30T01:22:21.288Z,20.35
2019-04-30T01:23:17.301Z,20.35
2019-04-30T01:24:16.308Z,20.42
2019-04-30T01:25:16.296Z,20.38
2019-04-30T01:26:16.264Z,20.39
2019-04-30T01:27:16.252Z,20.33
2019-04-30T01:28:20.219Z,20.41
2019-04-30T01:29:19.115Z,20.39
2019-04-30T01:30:18.693Z,20.34
2019-04-30T01:31:18.785Z,20.38
2019-04-30T01:32:19.867Z,20.38
2019-04-30T01:33:16.186Z,20.35
2019-04-30T01:34:16.173Z,20.28
2019-04-30T01:35:16.184Z,20.30
2019-04-30T01:36:16.151Z,20.35
2019-04-30T01:37:16.140Z,20.30
2019-04-30T01:38:16.131Z,20.30
2019-04-30T01:39:16.122Z,20.34
2019-04-30T01:40:16.126Z,20.34
2019-04-30T01:41:20.249Z,20.34
2019-04-30T01:42:18.502Z,20.31
2019-04-30T01:43:16.072Z,20.31
2019-04-30T01:44:16.064Z,20.27
2019-04-30T01:45:16.070Z,20.34
2019-04-30T01:46:16.038Z,20.30
2019-04-30T01:47:16.034Z,20.24
2019-04-30T01:48:16.015Z,20.35
2019-04-30T01:49:16.004Z,20.28
2019-04-30T01:50:16.014Z,20.30
2019-04-30T01:51:20.470Z,20.21
2019-04-30T01:52:16.972Z,20.25
2019-04-30T01:53:15.959Z,20.21
2019-04-30T01:54:21.132Z,20.24
2019-04-30T01:55:16.959Z,20.30
2019-04-30T01:56:15.926Z,20.21
2019-04-30T01:57:15.913Z,20.30
2019-04-30T01:58:15.904Z,20.25
2019-04-30T01:59:15.895Z,20.23
2019-04-30T02:00:15.906Z,20.24
2019-04-30T02:01:15.871Z,20.27
2019-04-30T02:02:15.857Z,20.35
2019-04-30T02:03:15.848Z,20.27
2019-04-30T02:04:15.835Z,20.24
2019-04-30T02:05:15.849Z,20.28
2019-04-30T02:06:15.818Z,20.21
2019-04-30T02:07:15.804Z,20.24
2019-04-30T02:08:15.790Z,20.25
2019-04-30T02:09:15.780Z,20.23
2019-04-30T02:10:15.793Z,20.27
2019-04-30T02:11:15.756Z,20.24
2019-04-30T02:12:15.745Z,20.23
2019-04-30T02:13:15.733Z,20.24
2019-04-30T02:14:15.724Z,20.25
2019-04-30T02:15:15.733Z,20.27
2019-04-30T02:16:15.704Z,20.25
2019-04-30T02:17:15.688Z,20.24
2019-04-30T02:18:15.677Z,20.25
2019-04-30T02:19:15.690Z,20.24
2019-04-30T02:20:15.660Z,20.21
2019-04-30T02:21:15.664Z,20.24
2019-04-30T02:22:15.633Z,20.30
2019-04-30T02:23:15.621Z,20.25
2019-04-30T02:24:15.611Z,20.28
2019-04-30T02:25:15.598Z,20.30
2019-04-30T02:26:15.613Z,20.28
2019-04-30T02:27:15.576Z,20.23
2019-04-30T02:28:15.566Z,20.25
2019-04-30T02:29:15.554Z,20.28
2019-04-30T02:30:15.544Z,20.27
2019-04-30T02:31:15.557Z,20.27
2019-04-30T02:32:15.543Z,20.21
2019-04-30T02:33:15.513Z,20.28
2019-04-30T02:34:15.498Z,20.25
2019-04-30T02:35:15.489Z,20.24
2019-04-30T02:36:15.496Z,20.24
2019-04-30T02:37:15.464Z,20.21
2019-04-30T02:38:15.453Z,20.23
2019-04-30T02:39:15.441Z,20.25
2019-04-30T02:40:15.432Z,20.24
2019-04-30T02:41:15.444Z,20.24
2019-04-30T02:42:15.411Z,20.27
2019-04-30T02:43:15.395Z,20.25
2019-04-30T02:44:15.386Z,20.21
2019-04-30T02:45:15.394Z,20.21
2019-04-30T02:46:15.361Z,20.24
2019-04-30T02:47:15.386Z,20.25
2019-04-30T02:48:15.343Z,20.28
2019-04-30T02:49:15.333Z,20.25
2019-04-30T02:50:18.655Z,20.24
2019-04-30T02:51:16.311Z,20.27
2019-04-30T02:52:15.316Z,20.21
2019-04-30T02:53:15.283Z,20.23
2019-04-30T02:54:15.271Z,20.21
2019-04-30T02:55:15.266Z,20.30
2019-04-30T02:56:15.256Z,20.25
2019-04-30T02:57:15.266Z,20.24
2019-04-30T02:58:15.229Z,20.27
2019-04-30T02:59:15.214Z,20.20
2019-04-30T03:00:15.205Z,20.23
2019-04-30T03:01:15.197Z,20.20
2019-04-30T03:02:15.203Z,20.23
2019-04-30T03:03:15.171Z,20.23
2019-04-30T03:04:15.158Z,20.21
2019-04-30T03:05:15.151Z,20.24
2019-04-30T03:06:15.142Z,20.25
2019-04-30T03:07:15.149Z,20.25
2019-04-30T03:08:15.123Z,20.24
2019-04-30T03:09:15.102Z,20.24
2019-04-30T03:10:15.093Z,20.30
2019-04-30T03:11:15.084Z,20.34
2019-04-30T03:12:15.094Z,20.33
2019-04-30T03:13:15.057Z,20.34
2019-04-30T03:14:15.046Z,20.31
2019-04-30T03:15:15.042Z,20.39
2019-04-30T03:16:15.024Z,20.35
2019-04-30T03:17:15.035Z,20.41
2019-04-30T03:18:15.000Z,20.41
2019-04-30T03:19:14.991Z,20.41
2019-04-30T03:20:27.995Z,20.46
2019-04-30T03:21:15.965Z,20.43
2019-04-30T03:22:14.977Z,20.38
2019-04-30T03:23:14.953Z,20.39
2019-04-30T03:24:14.934Z,20.43
2019-04-30T03:25:14.937Z,20.39
2019-04-30T03:26:14.911Z,20.43
2019-04-30T03:27:14.921Z,20.47
2019-04-30T03:28:14.890Z,20.54
2019-04-30T03:29:14.876Z,20.49
2019-04-30T03:30:14.889Z,20.54
2019-04-30T03:31:14.854Z,20.47
2019-04-30T03:32:14.905Z,20.43
2019-04-30T03:33:14.834Z,20.39
2019-04-30T03:34:23.294Z,20.51
2019-04-30T03:35:15.828Z,20.49
2019-04-30T03:36:14.799Z,20.46
2019-04-30T03:37:14.815Z,20.47
2019-04-30T03:38:14.775Z,20.53
2019-04-30T03:39:14.772Z,20.51
2019-04-30T03:40:14.753Z,20.42
2019-04-30T03:41:14.742Z,20.46
2019-04-30T03:42:14.729Z,20.54
2019-04-30T03:43:14.740Z,20.47
2019-04-30T03:44:21.611Z,20.56
2019-04-30T03:45:15.697Z,20.50
2019-04-30T03:46:14.686Z,20.56
2019-04-30T03:47:14.673Z,20.53
2019-04-30T03:48:14.693Z,20.58
2019-04-30T03:49:14.651Z,20.62
2019-04-30T03:50:14.641Z,20.66
2019-04-30T03:51:14.629Z,20.51
2019-04-30T03:52:14.621Z,20.68
2019-04-30T03:53:14.628Z,20.69
2019-04-30T03:54:14.603Z,20.68
2019-04-30T03:55:14.589Z,20.65
2019-04-30T03:56:14.577Z,20.69
2019-04-30T03:57:14.561Z,20.71
2019-04-30T03:58:14.573Z,20.79
2019-04-30T03:59:14.539Z,20.81
2019-04-30T04:00:14.529Z,20.83
2019-04-30T04:01:14.516Z,20.80
2019-04-30T04:02:14.509Z,20.90
2019-04-30T04:03:14.520Z,20.93
2019-04-30T04:04:14.497Z,20.93
2019-04-30T04:05:14.471Z,20.95
2019-04-30T04:06:14.460Z,21.08
2019-04-30T04:07:14.449Z,21.06
2019-04-30T04:08:14.459Z,21.06
2019-04-30T04:09:14.425Z,21.05
2019-04-30T04:10:14.415Z,21.11
2019-04-30T04:11:14.403Z,21.06
2019-04-30T04:12:14.391Z,21.06
2019-04-30T04:13:14.407Z,20.99
2019-04-30T04:14:14.370Z,20.99
2019-04-30T04:15:14.357Z,20.98
2019-04-30T04:16:14.368Z,20.91
2019-04-30T04:17:14.336Z,20.99
2019-04-30T04:18:14.325Z,20.95
2019-04-30T04:19:14.335Z,20.95
2019-04-30T04:20:14.305Z,20.99
2019-04-30T04:21:16.955Z,20.95
2019-04-30T04:22:14.279Z,20.98
2019-04-30T04:23:14.270Z,20.90
2019-04-30T04:24:14.280Z,20.96
2019-04-30T04:25:14.246Z,20.99
2019-04-30T04:26:14.233Z,21.05
2019-04-30T04:27:14.223Z,21.06
2019-04-30T04:28:14.212Z,21.06
2019-04-30T04:29:14.221Z,21.06
2019-04-30T04:30:14.192Z,21.05
2019-04-30T04:31:14.177Z,21.04
2019-04-30T04:32:14.168Z,21.05
2019-04-30T04:33:14.156Z,21.06
2019-04-30T04:34:14.165Z,21.06
2019-04-30T04:35:14.149Z,21.05
2019-04-30T04:36:14.136Z,21.09
2019-04-30T04:37:14.113Z,21.17
2019-04-30T04:38:14.102Z,21.20
2019-04-30T04:39:14.109Z,21.08
2019-04-30T04:40:14.078Z,21.08
2019-04-30T04:41:14.067Z,21.14
2019-04-30T04:42:14.057Z,21.13
2019-04-30T04:43:14.042Z,21.05
2019-04-30T04:44:14.053Z,21.14
2019-04-30T04:45:14.024Z,21.17
2019-04-30T04:46:14.010Z,21.05
2019-04-30T04:47:16.067Z,21.14
2019-04-30T04:48:13.989Z,21.14
2019-04-30T04:49:13.998Z,21.20
2019-04-30T04:50:13.966Z,21.08
2019-04-30T04:51:27.750Z,21.09
2019-04-30T04:52:14.946Z,21.13
2019-04-30T04:53:13.929Z,21.11
2019-04-30T04:54:13.926Z,21.20
2019-04-30T04:55:13.932Z,21.16
2019-04-30T04:56:13.895Z,21.14
2019-04-30T04:57:17.957Z,21.17
2019-04-30T04:58:14.874Z,21.20
2019-04-30T04:59:13.881Z,21.21
2019-04-30T05:00:13.878Z,21.11
2019-04-30T05:01:13.843Z,21.17
2019-04-30T05:02:13.828Z,21.20
2019-04-30T05:03:13.817Z,21.13
2019-04-30T05:04:13.806Z,21.11
2019-04-30T05:05:13.816Z,21.14
2019-04-30T05:06:13.783Z,21.08
2019-04-30T05:07:13.786Z,21.24
2019-04-30T05:08:13.761Z,21.20
2019-04-30T05:09:13.749Z,21.14
2019-04-30T05:10:13.764Z,21.23
2019-04-30T05:11:13.739Z,21.26
2019-04-30T05:12:13.714Z,21.26
2019-04-30T05:13:13.703Z,21.14
2019-04-30T05:14:13.692Z,21.16
2019-04-30T05:15:13.702Z,21.24
2019-04-30T05:16:13.673Z,21.27
2019-04-30T05:17:13.661Z,21.26
2019-04-30T05:18:13.671Z,21.29
2019-04-30T05:19:13.636Z,21.32
2019-04-30T05:20:13.624Z,21.27
2019-04-30T05:21:13.634Z,21.26
2019-04-30T05:22:13.605Z,21.26
2019-04-30T05:23:13.594Z,21.24
2019-04-30T05:24:13.579Z,21.30
2019-04-30T05:25:13.568Z,21.34
2019-04-30T05:26:13.579Z,21.39
2019-04-30T05:27:13.545Z,21.35
2019-04-30T05:28:13.533Z,21.35
2019-04-30T05:29:13.527Z,21.32
2019-04-30T05:30:13.511Z,21.38
2019-04-30T05:31:13.521Z,21.39
2019-04-30T05:32:13.489Z,21.29
2019-04-30T05:33:13.481Z,21.38
2019-04-30T05:34:13.466Z,21.38
2019-04-30T05:35:13.456Z,21.34
2019-04-30T05:36:13.476Z,21.42
2019-04-30T05:37:13.434Z,21.35
2019-04-30T05:38:13.424Z,21.38
2019-04-30T05:39:13.416Z,21.36
2019-04-30T05:40:13.399Z,21.34
2019-04-30T05:41:13.410Z,21.42
2019-04-30T05:42:13.377Z,21.44
2019-04-30T05:43:13.369Z,21.34
2019-04-30T05:44:13.357Z,21.32
2019-04-30T05:45:13.351Z,21.34
2019-04-30T05:46:14.138Z,21.38
2019-04-30T05:47:13.321Z,21.30
2019-04-30T05:48:13.313Z,21.21
2019-04-30T05:49:13.298Z,21.30
2019-04-30T05:50:13.292Z,21.27
2019-04-30T05:51:13.275Z,21.29
2019-04-30T05:52:13.858Z,21.27
2019-04-30T05:53:13.257Z,21.26
2019-04-30T05:54:13.241Z,21.29
2019-04-30T05:55:13.231Z,21.26
2019-04-30T05:56:13.219Z,21.24
2019-04-30T05:57:13.229Z,21.29
2019-04-30T05:58:13.201Z,21.27
2019-04-30T05:59:16.598Z,21.30
2019-04-30T06:00:13.176Z,21.32
2019-04-30T06:01:13.164Z,21.35
2019-04-30T06:02:13.176Z,21.24
2019-04-30T06:03:24.965Z,21.35
2019-04-30T06:04:14.128Z,21.32
2019-04-30T06:05:13.120Z,21.35
2019-04-30T06:06:13.121Z,21.38
2019-04-30T06:07:13.117Z,21.39
2019-04-30T06:08:13.087Z,21.41
2019-04-30T06:09:22.574Z,21.35
2019-04-30T06:10:14.060Z,21.53
2019-04-30T06:11:13.050Z,21.48
2019-04-30T06:12:13.043Z,21.46
2019-04-30T06:13:13.064Z,21.51
2019-04-30T06:14:13.017Z,21.59
2019-04-30T06:15:13.005Z,21.54
2019-04-30T06:16:12.994Z,21.51
2019-04-30T06:17:12.982Z,21.56
2019-04-30T06:18:14.070Z,21.60
2019-04-30T06:19:12.961Z,21.53
2019-04-30T06:20:18.434Z,21.53
2019-04-30T06:21:13.944Z,21.56
2019-04-30T06:22:12.926Z,21.54
2019-04-30T06:23:12.937Z,21.64
2019-04-30T06:24:12.909Z,21.60
2019-04-30T06:25:12.906Z,21.66
2019-04-30T06:26:13.311Z,21.64
2019-04-30T06:27:12.871Z,21.61
2019-04-30T06:28:12.880Z,21.61
2019-04-30T06:29:12.851Z,21.67
2019-04-30T06:30:12.836Z,21.50
2019-04-30T06:31:12.830Z,21.56
2019-04-30T06:32:12.814Z,21.56
2019-04-30T06:33:12.844Z,21.46
2019-04-30T06:34:12.792Z,21.54
2019-04-30T06:35:12.780Z,21.60
2019-04-30T06:36:12.774Z,21.50
2019-04-30T06:37:12.757Z,21.45
2019-04-30T06:38:12.746Z,21.44
2019-04-30T06:39:12.756Z,21.27
2019-04-30T06:40:12.724Z,21.13
2019-04-30T06:41:12.712Z,21.14
2019-04-30T06:42:13.088Z,21.11
2019-04-30T06:43:12.693Z,21.11
2019-04-30T06:44:12.700Z,21.04
2019-04-30T06:45:12.669Z,20.93
2019-04-30T06:46:12.656Z,20.91
2019-04-30T06:47:12.645Z,20.81
2019-04-30T06:48:12.642Z,20.68
2019-04-30T06:49:12.648Z,20.64
2019-04-30T06:50:12.624Z,20.46
2019-04-30T06:51:12.601Z,20.27
2019-04-30T06:52:20.703Z,20.08
2019-04-30T06:53:13.581Z,20.02
2019-04-30T06:54:12.587Z,20.00
2019-04-30T06:55:12.558Z,19.86
2019-04-30T06:56:12.543Z,19.75
2019-04-30T06:57:12.545Z,19.57
2019-04-30T06:58:15.448Z,19.61
2019-04-30T06:59:12.536Z,19.48
2019-04-30T07:00:12.498Z,19.40
2019-04-30T07:01:12.487Z,19.29
2019-04-30T07:02:12.477Z,19.32
2019-04-30T07:03:12.463Z,19.14
2019-04-30T07:04:12.475Z,19.21
2019-04-30T07:05:12.444Z,19.15
2019-04-30T07:06:12.435Z,19.05
2019-04-30T07:07:14.372Z,19.06
2019-04-30T07:08:13.407Z,19.06
2019-04-30T07:09:12.421Z,19.14
2019-04-30T07:10:16.880Z,18.97
2019-04-30T07:11:13.375Z,18.95
2019-04-30T07:12:22.842Z,18.97
2019-04-30T07:13:13.354Z,19.01
2019-04-30T07:14:12.386Z,19.06
2019-04-30T07:15:13.726Z,19.08
2019-04-30T07:16:12.318Z,19.02
2019-04-30T07:17:12.310Z,19.06
2019-04-30T07:18:12.296Z,19.08
2019-04-30T07:19:12.305Z,19.23
2019-04-30T07:20:12.273Z,19.15
2019-04-30T07:21:12.263Z,19.25
2019-04-30T07:22:12.253Z,19.36
2019-04-30T07:23:12.240Z,19.35
2019-04-30T07:24:12.250Z,19.36
2019-04-30T07:25:12.217Z,19.43
2019-04-30T07:26:13.749Z,19.33
2019-04-30T07:27:13.193Z,19.35
2019-04-30T07:28:12.186Z,19.29
2019-04-30T07:29:12.378Z,19.24
2019-04-30T07:30:12.162Z,19.39
2019-04-30T07:31:14.462Z,19.33
2019-04-30T07:32:12.140Z,19.43
2019-04-30T07:33:12.132Z,19.50
2019-04-30T07:34:12.150Z,19.46
2019-04-30T07:35:12.130Z,19.57
2019-04-30T07:36:12.101Z,19.58
2019-04-30T07:37:20.676Z,19.63
2019-04-30T07:38:13.076Z,19.78
2019-04-30T07:39:12.062Z,19.84
2019-04-30T07:40:12.072Z,19.90
2019-04-30T07:41:12.041Z,20.03
2019-04-30T07:42:12.030Z,20.16
2019-04-30T07:43:12.019Z,20.27
2019-04-30T07:44:29.404Z,20.27
2019-04-30T07:45:13.024Z,20.47
2019-04-30T07:46:11.985Z,20.61
2019-04-30T07:47:11.972Z,20.50
2019-04-30T07:48:11.961Z,20.53
2019-04-30T07:49:12.087Z,20.65
2019-04-30T07:50:12.263Z,20.69
2019-04-30T07:51:12.452Z,20.83
2019-04-30T07:52:12.703Z,20.79
2019-04-30T07:53:12.409Z,20.76
2019-04-30T07:54:11.893Z,20.79
2019-04-30T07:55:11.882Z,20.81
2019-04-30T07:56:24.399Z,20.81
2019-04-30T07:57:12.860Z,20.79
2019-04-30T07:58:11.849Z,20.79
2019-04-30T07:59:11.839Z,20.81
2019-04-30T08:00:11.827Z,20.79
2019-04-30T08:01:11.837Z,20.81
2019-04-30T08:02:14.634Z,20.69
2019-04-30T08:03:11.968Z,20.53
2019-04-30T08:04:11.781Z,20.50
2019-04-30T08:05:11.770Z,20.39
2019-04-30T08:06:11.809Z,20.24
2019-04-30T08:07:11.831Z,20.12
2019-04-30T08:08:21.328Z,20.15
2019-04-30T08:09:12.725Z,20.08
2019-04-30T08:10:11.716Z,20.02
2019-04-30T08:11:22.918Z,20.00
2019-04-30T08:12:22.206Z,19.91
2019-04-30T08:13:15.108Z,19.75
2019-04-30T08:14:11.676Z,19.78
2019-04-30T08:15:11.660Z,19.63
2019-04-30T08:16:11.669Z,19.61
2019-04-30T08:17:11.636Z,19.61
2019-04-30T08:18:11.630Z,19.63
2019-04-30T08:19:11.620Z,19.48
2019-04-30T08:20:11.607Z,19.55
2019-04-30T08:21:11.619Z,19.55
2019-04-30T08:22:11.581Z,19.54
2019-04-30T08:23:17.343Z,19.50
2019-04-30T08:24:12.557Z,19.47
2019-04-30T08:25:11.570Z,19.36
2019-04-30T08:26:11.570Z,19.35
2019-04-30T08:27:11.525Z,19.28
2019-04-30T08:28:11.520Z,19.20
2019-04-30T08:29:11.504Z,19.18
2019-04-30T08:30:21.350Z,19.29
2019-04-30T08:31:12.514Z,19.31
2019-04-30T08:32:11.470Z,19.36
2019-04-30T08:33:11.462Z,19.29
2019-04-30T08:34:11.520Z,19.25
2019-04-30T08:35:11.438Z,19.33
2019-04-30T08:36:11.424Z,19.36
2019-04-30T08:37:17.286Z,19.38
2019-04-30T08:38:12.400Z,19.48
2019-04-30T08:39:11.392Z,19.43
2019-04-30T08:40:11.382Z,19.48
2019-04-30T08:41:11.369Z,19.53
2019-04-30T08:42:11.384Z,19.57
2019-04-30T08:43:11.351Z,19.55
2019-04-30T08:44:11.338Z,19.55
2019-04-30T08:45:11.323Z,19.65
2019-04-30T08:46:11.316Z,19.66
2019-04-30T08:47:11.323Z,19.72
2019-04-30T08:48:11.294Z,19.80
2019-04-30T08:49:11.372Z,19.88
2019-04-30T08:50:11.582Z,20.05
2019-04-30T08:51:13.658Z,20.03
2019-04-30T08:52:11.620Z,20.03
2019-04-30T08:53:11.672Z,19.98
2019-04-30T08:54:11.226Z,19.93
2019-04-30T08:55:16.441Z,19.88
2019-04-30T08:56:12.204Z,19.87
2019-04-30T08:57:11.213Z,19.87
2019-04-30T08:58:14.943Z,19.87
2019-04-30T08:59:11.410Z,19.80
2019-04-30T09:00:11.859Z,19.79
2019-04-30T09:01:11.149Z,20.02
2019-04-30T09:02:15.830Z,19.93
2019-04-30T09:03:12.130Z,20.03
2019-04-30T09:04:11.115Z,20.00
2019-04-30T09:05:11.105Z,20.15
2019-04-30T09:06:11.109Z,20.28
2019-04-30T09:07:11.078Z,20.33
2019-04-30T09:08:11.092Z,20.33
2019-04-30T09:09:11.243Z,20.42
2019-04-30T09:10:11.048Z,20.39
2019-04-30T09:11:22.383Z,20.41
2019-04-30T09:12:12.021Z,20.31
2019-04-30T09:13:11.057Z,20.28
2019-04-30T09:14:10.999Z,20.21
2019-04-30T09:15:10.989Z,20.28
2019-04-30T09:16:10.978Z,20.18
2019-04-30T09:17:10.966Z,20.13
2019-04-30T09:18:12.635Z,20.16
2019-04-30T09:19:10.965Z,20.02
2019-04-30T09:20:10.934Z,19.97
2019-04-30T09:21:10.924Z,20.05
2019-04-30T09:22:14.895Z,19.98
2019-04-30T09:23:11.307Z,20.00
2019-04-30T09:24:10.909Z,20.02
2019-04-30T09:25:10.877Z,20.10
2019-04-30T09:26:10.866Z,20.13
2019-04-30T09:27:10.913Z,20.25
2019-04-30T09:28:10.847Z,20.30
2019-04-30T09:29:10.858Z,20.25
2019-04-30T09:30:10.820Z,20.23
2019-04-30T09:31:10.810Z,20.23
2019-04-30T09:32:10.798Z,20.27
2019-04-30T09:33:11.168Z,20.27
2019-04-30T09:34:17.135Z,20.35
2019-04-30T09:35:11.771Z,20.41
2019-04-30T09:36:10.758Z,20.30
2019-04-30T09:37:10.746Z,20.30
2019-04-30T09:38:10.734Z,20.21
2019-04-30T09:39:10.746Z,20.24
2019-04-30T09:40:18.322Z,20.28
2019-04-30T09:41:11.699Z,20.27
2019-04-30T09:42:10.691Z,20.24
2019-04-30T09:43:10.681Z,20.25
2019-04-30T09:44:10.687Z,20.33
2019-04-30T09:45:10.658Z,20.53
2019-04-30T09:46:19.197Z,20.68
2019-04-30T09:47:11.629Z,20.69
2019-04-30T09:48:10.623Z,20.83
2019-04-30T09:49:10.629Z,20.91
2019-04-30T09:50:10.598Z,20.98
2019-04-30T09:51:11.260Z,20.96
2019-04-30T09:52:10.744Z,21.06
2019-04-30T09:53:10.970Z,21.20
2019-04-30T09:54:12.805Z,21.19
2019-04-30T09:55:10.820Z,21.16
2019-04-30T09:56:10.530Z,21.26
2019-04-30T09:57:11.441Z,21.29
2019-04-30T09:58:16.995Z,21.21
2019-04-30T09:59:11.525Z,21.21
2019-04-30T10:00:10.484Z,21.13
2019-04-30T10:01:10.472Z,21.16
2019-04-30T10:02:10.463Z,20.99
2019-04-30T10:03:11.491Z,20.89
2019-04-30T10:04:11.180Z,20.81
2019-04-30T10:05:11.019Z,20.80
2019-04-30T10:06:10.420Z,20.56
2019-04-30T10:07:10.409Z,20.53
2019-04-30T10:08:10.394Z,20.59
2019-04-30T10:09:10.383Z,20.65
2019-04-30T10:10:11.384Z,20.76
2019-04-30T10:11:10.367Z,20.87
2019-04-30T10:12:10.350Z,20.90
2019-04-30T10:13:10.342Z,20.98
2019-04-30T10:14:10.328Z,21.05
2019-04-30T10:15:10.339Z,21.06
2019-04-30T10:16:10.310Z,21.16
2019-04-30T10:17:10.293Z,21.26
2019-04-30T10:18:10.286Z,21.23
2019-04-30T10:19:10.372Z,21.30
2019-04-30T10:20:10.285Z,21.50
2019-04-30T10:21:10.248Z,21.57
2019-04-30T10:22:10.240Z,21.63
2019-04-30T10:23:10.230Z,21.75
2019-04-30T10:24:14.967Z,21.79
2019-04-30T10:25:11.228Z,21.78
2019-04-30T10:26:10.192Z,21.95
2019-04-30T10:27:13.094Z,22.02
2019-04-30T10:28:10.296Z,22.06
2019-04-30T10:29:10.179Z,22.07
2019-04-30T10:30:10.171Z,22.17
2019-04-30T10:31:10.149Z,22.09
2019-04-30T10:32:10.125Z,22.19
2019-04-30T10:33:10.191Z,22.29
2019-04-30T10:34:10.104Z,22.34
2019-04-30T10:35:10.118Z,22.41
2019-04-30T10:36:11.699Z,22.46
2019-04-30T10:37:10.099Z,22.52
2019-04-30T10:38:10.299Z,22.50
2019-04-30T10:39:10.085Z,22.53
2019-04-30T10:40:11.808Z,22.57
2019-04-30T10:41:10.145Z,22.67
2019-04-30T10:42:10.152Z,22.59
2019-04-30T10:43:11.077Z,22.64
2019-04-30T10:44:09.993Z,22.67
2019-04-30T10:45:10.098Z,22.74
2019-04-30T10:46:10.102Z,22.71
2019-04-30T10:47:10.023Z,22.78
2019-04-30T10:48:09.966Z,22.80
2019-04-30T10:49:09.977Z,22.78
2019-04-30T10:50:10.135Z,22.83
2019-04-30T10:51:10.465Z,22.93
2019-04-30T10:52:09.900Z,22.80
2019-04-30T10:53:12.196Z,22.90
2019-04-30T10:54:09.877Z,22.80
2019-04-30T10:55:09.867Z,22.86
2019-04-30T10:56:09.922Z,22.92
2019-04-30T10:57:09.844Z,22.89
2019-04-30T10:58:09.833Z,22.97
2019-04-30T10:59:09.822Z,23.02
2019-04-30T11:00:10.119Z,22.97
2019-04-30T11:01:09.822Z,23.02
2019-04-30T11:02:09.789Z,23.04
2019-04-30T11:03:19.158Z,23.04
2019-04-30T11:04:10.773Z,23.09
2019-04-30T11:05:09.756Z,23.12
2019-04-30T11:06:09.768Z,23.12
2019-04-30T11:07:09.734Z,23.17
2019-04-30T11:08:09.721Z,23.17
2019-04-30T11:09:09.713Z,23.22
2019-04-30T11:10:09.700Z,23.14
2019-04-30T11:11:09.709Z,23.26
2019-04-30T11:12:09.680Z,23.17
2019-04-30T11:13:09.666Z,23.17
2019-04-30T11:14:09.658Z,23.26
2019-04-30T11:15:09.643Z,23.17
2019-04-30T11:16:15.117Z,23.26
2019-04-30T11:17:10.795Z,23.22
2019-04-30T11:18:09.912Z,23.32
2019-04-30T11:19:10.656Z,23.32
2019-04-30T11:20:10.426Z,23.38
2019-04-30T11:21:09.894Z,23.32
2019-04-30T11:22:09.686Z,23.45
2019-04-30T11:23:14.690Z,23.47
2019-04-30T11:24:10.618Z,23.55
2019-04-30T11:25:10.165Z,23.58
2019-04-30T11:26:10.130Z,23.58
2019-04-30T11:27:11.082Z,23.58
2019-04-30T11:28:10.093Z,23.64
2019-04-30T11:29:09.684Z,23.64
2019-04-30T11:30:20.401Z,23.61
2019-04-30T11:31:10.644Z,23.64
2019-04-30T11:32:09.698Z,23.68
2019-04-30T11:33:09.653Z,23.65
2019-04-30T11:34:09.445Z,23.67
2019-04-30T11:35:09.424Z,23.77
2019-04-30T11:36:09.724Z,23.72
2019-04-30T11:37:09.420Z,23.71
2019-04-30T11:38:09.391Z,23.72
2019-04-30T11:39:09.376Z,23.76
2019-04-30T11:40:09.366Z,23.80
2019-04-30T11:41:09.355Z,23.77
2019-04-30T11:42:09.364Z,23.83
2019-04-30T11:43:09.332Z,23.86
2019-04-30T11:44:09.341Z,23.85
2019-04-30T11:45:09.309Z,23.90
2019-04-30T11:46:09.300Z,23.86
2019-04-30T11:47:09.609Z,23.95
2019-04-30T11:48:09.276Z,23.92
2019-04-30T11:49:09.720Z,23.97
2019-04-30T11:50:09.257Z,24.01
2019-04-30T11:51:09.512Z,23.98
2019-04-30T11:52:09.232Z,24.01
2019-04-30T11:53:22.643Z,24.01
2019-04-30T11:54:10.208Z,24.02
2019-04-30T11:55:09.765Z,24.04
2019-04-30T11:56:09.199Z,23.98
2019-04-30T11:57:09.180Z,24.01
2019-04-30T11:58:21.143Z,23.95
2019-04-30T11:59:10.153Z,23.98
2019-04-30T12:00:10.758Z,23.94
2019-04-30T12:01:09.415Z,24.01
2019-04-30T12:02:09.124Z,24.04
2019-04-30T12:03:09.148Z,24.00
2019-04-30T12:04:09.411Z,23.89
2019-04-30T12:05:09.087Z,24.10
2019-04-30T12:06:09.076Z,23.89
2019-04-30T12:07:09.064Z,24.01
2019-04-30T12:08:09.602Z,24.04
2019-04-30T12:09:09.238Z,23.90
2019-04-30T12:10:09.548Z,24.00
2019-04-30T12:11:09.020Z,24.12
2019-04-30T12:12:09.188Z,24.10
2019-04-30T12:13:09.589Z,24.02
2019-04-30T12:14:08.987Z,23.95
2019-04-30T12:15:09.383Z,24.04
2019-04-30T12:16:08.964Z,24.08
2019-04-30T12:17:08.959Z,24.02
2019-04-30T12:18:08.963Z,24.02
2019-04-30T12:19:09.137Z,24.01
2019-04-30T12:20:08.923Z,24.01
2019-04-30T12:21:08.910Z,24.01
2019-04-30T12:22:08.897Z,24.07
2019-04-30T12:23:11.711Z,24.01
2019-04-30T12:24:08.876Z,24.07
2019-04-30T12:25:10.072Z,24.08
2019-04-30T12:26:09.283Z,24.08
2019-04-30T12:27:08.842Z,24.08
2019-04-30T12:28:09.495Z,24.08
2019-04-30T12:29:08.926Z,24.05
2019-04-30T12:30:08.829Z,24.05
2019-04-30T12:31:09.846Z,24.13
2019-04-30T12:32:08.790Z,24.08
2019-04-30T12:33:09.114Z,24.10
2019-04-30T12:34:08.787Z,24.04
2019-04-30T12:35:08.753Z,24.10
2019-04-30T12:36:09.081Z,24.07
2019-04-30T12:37:10.638Z,24.08
2019-04-30T12:38:08.890Z,24.12
2019-04-30T12:39:08.729Z,24.12
2019-04-30T12:40:09.512Z,24.12
2019-04-30T12:41:09.685Z,24.08
2019-04-30T12:42:08.807Z,24.07
2019-04-30T12:43:08.672Z,24.10
2019-04-30T12:44:08.675Z,24.12
2019-04-30T12:45:09.490Z,24.16
2019-04-30T12:46:08.655Z,24.14
2019-04-30T12:47:09.692Z,24.10
2019-04-30T12:48:08.615Z,24.12
2019-04-30T12:49:10.234Z,24.14
2019-04-30T12:50:09.554Z,24.14
2019-04-30T12:51:08.596Z,24.12
2019-04-30T12:52:08.827Z,24.07